createdAt,value
2023-04-06T00:01:30.720Z,0.10
2023-04-06T00:06:34.337Z,0.00
2023-04-06T00:11:38.970Z,0.10
2023-04-06T00:16:42.397Z,0.10
2023-04-06T00:21:45.799Z,0.00
2023-04-06T00:26:50.478Z,0.00
2023-04-06T00:31:53.976Z,0.00
2023-04-06T00:36:57.377Z,0.00
2023-04-06T00:42:03.177Z,0.30
2023-04-06T00:47:06.588Z,-0.10
2023-04-06T00:52:10.502Z,-0.20
2023-04-06T00:57:16.398Z,-0.30
2023-04-06T01:02:21.407Z,0.50
2023-04-06T01:07:27.971Z,-0.40
2023-04-06T01:12:49.485Z,0.00
2023-04-06T01:18:00.386Z,-0.40
2023-04-06T01:23:05.202Z,-0.60
2023-04-06T01:28:09.709Z,0.30
2023-04-06T01:33:29.931Z,-0.60
2023-04-06T01:38:39.508Z,-0.60
2023-04-06T01:43:44.470Z,-0.70
2023-04-06T01:48:48.254Z,-0.30
2023-04-06T01:54:00.894Z,-0.80
2023-04-06T01:59:42.788Z,-0.80
2023-04-06T02:05:01.193Z,1.10
2023-04-06T02:10:13.137Z,-0.90
2023-04-06T02:15:16.918Z,-0.90
2023-04-06T02:20:20.259Z,-0.90
2023-04-06T02:25:24.971Z,-1.00
2023-04-06T02:30:28.593Z,-1.00
2023-04-06T02:35:33.361Z,-1.00
2023-04-06T02:40:38.588Z,-3.00
2023-04-06T02:45:53.158Z,-1.10
2023-04-06T03:27:04.012Z,-1.60
2023-04-06T03:32:09.846Z,-1.60
2023-04-06T03:37:17.842Z,-1.60
2023-04-06T03:42:28.880Z,-1.60
2023-04-06T03:47:39.180Z,-1.60
2023-04-06T03:52:44.828Z,-1.70
2023-04-06T03:57:50.445Z,-0.20
2023-04-06T04:02:55.114Z,-1.70
2023-04-06T04:07:58.542Z,-1.60
2023-04-06T04:13:05.594Z,-1.70
2023-04-06T04:18:09.405Z,-1.80
2023-04-06T04:23:12.816Z,-1.70
2023-04-06T04:28:17.634Z,-1.70
2023-04-06T04:33:22.133Z,-1.70
2023-04-06T04:38:27.310Z,-0.80
2023-04-06T04:43:35.047Z,-1.70
2023-04-06T04:48:40.724Z,1.10
2023-04-06T04:53:45.462Z,-1.50
2023-04-06T04:58:58.936Z,-1.50
2023-04-06T05:04:05.545Z,-1.10
2023-04-06T05:09:09.411Z,-1.30
2023-04-06T05:14:15.238Z,-1.20
2023-04-06T05:19:19.288Z,-1.00
2023-04-06T05:24:24.290Z,-1.00
2023-04-06T05:29:29.869Z,-0.80
2023-04-06T05:34:33.175Z,-0.60
2023-04-06T05:39:40.669Z,-0.40
2023-04-06T05:44:45.590Z,0.10
2023-04-06T05:49:51.873Z,0.20
2023-04-06T05:55:10.169Z,0.80
2023-04-06T06:00:17.103Z,2.00
2023-04-06T06:05:31.251Z,2.60
2023-04-06T06:10:41.854Z,2.60
2023-04-06T06:15:49.656Z,3.80
2023-04-06T06:20:55.306Z,2.50
2023-04-06T06:25:59.736Z,3.50
2023-04-06T06:31:06.033Z,4.10
2023-04-06T06:36:10.132Z,5.20
2023-04-06T06:41:15.217Z,5.10
2023-04-06T06:46:20.145Z,5.80
2023-04-06T06:51:23.465Z,6.60
2023-04-06T06:56:27.776Z,5.40
2023-04-06T07:01:34.459Z,6.40
2023-04-06T07:06:38.184Z,6.40
2023-04-06T07:11:43.491Z,7.00
2023-04-06T07:16:49.949Z,6.10
2023-04-06T07:21:53.484Z,5.10
2023-04-06T07:26:56.922Z,4.30
2023-04-06T07:32:02.163Z,6.00
2023-04-06T07:37:06.244Z,7.40
2023-04-06T07:42:10.161Z,8.10
2023-04-06T07:47:15.995Z,7.80
2023-04-06T07:52:19.737Z,6.50
2023-04-06T07:57:23.233Z,6.60
2023-04-06T08:02:27.997Z,8.50
2023-04-06T08:07:31.297Z,7.80
2023-04-06T08:12:35.115Z,9.30
2023-04-06T08:17:39.802Z,10.20
2023-04-06T08:22:43.044Z,11.30
2023-04-06T08:27:46.303Z,11.40
2023-04-06T08:32:51.094Z,11.50
2023-04-06T08:37:54.387Z,11.80
2023-04-06T08:43:03.097Z,12.50
2023-04-06T08:48:08.331Z,13.00
2023-04-06T08:53:13.350Z,13.30
2023-04-06T08:58:27.517Z,13.10
2023-04-06T09:03:42.163Z,10.90
2023-04-06T09:08:45.621Z,12.80
2023-04-06T09:13:49.960Z,12.80
2023-04-06T09:18:54.647Z,13.20
2023-04-06T09:24:02.284Z,13.70
2023-04-06T09:29:07.298Z,10.60
2023-04-06T09:34:24.583Z,11.00
2023-04-06T09:39:28.112Z,13.00
2023-04-06T09:44:32.901Z,11.00
2023-04-06T09:49:37.640Z,11.50
2023-04-06T09:54:41.758Z,14.40
2023-04-06T09:59:52.043Z,15.40
2023-04-06T10:05:04.826Z,15.40
2023-04-06T10:10:09.117Z,16.30
2023-04-06T10:15:13.571Z,16.10
2023-04-06T10:20:25.946Z,16.80
2023-04-06T10:25:30.565Z,17.00
2023-04-06T10:30:35.060Z,16.80
2023-04-06T10:35:43.313Z,16.10
2023-04-06T10:40:48.160Z,17.20
2023-04-06T10:45:58.508Z,20.20
2023-04-06T10:51:03.485Z,18.20
2023-04-06T10:56:13.047Z,15.70
2023-04-06T11:01:18.188Z,15.00
2023-04-06T11:06:24.354Z,12.40
2023-04-06T11:11:28.701Z,10.80
2023-04-06T11:16:33.343Z,11.50
2023-04-06T11:21:40.420Z,14.80
2023-04-06T11:26:45.982Z,16.40
2023-04-06T11:31:50.639Z,17.30
2023-04-06T11:36:59.292Z,18.90
2023-04-06T11:42:06.824Z,17.90
2023-04-06T11:47:13.015Z,19.50
2023-04-06T11:52:22.598Z,19.60
2023-04-06T11:57:26.791Z,13.40
2023-04-06T12:02:30.167Z,13.00
2023-04-06T12:07:35.120Z,14.30
2023-04-06T12:12:38.534Z,11.70
2023-04-06T12:17:41.740Z,11.40
2023-04-06T12:22:46.504Z,14.40
2023-04-06T12:27:49.948Z,12.20
2023-04-06T12:32:53.394Z,13.70
2023-04-06T12:37:58.156Z,17.40
2023-04-06T12:43:01.456Z,17.70
2023-04-06T12:48:04.841Z,18.70
2023-04-06T12:53:09.478Z,20.10
2023-04-06T12:58:13.056Z,18.10
2023-04-06T13:03:16.692Z,19.80
2023-04-06T13:08:21.934Z,21.90
2023-04-06T13:13:26.651Z,23.10
2023-04-06T13:18:30.072Z,24.40
2023-04-06T13:23:34.748Z,23.30
2023-04-06T13:28:40.165Z,21.90
2023-04-06T13:33:43.558Z,22.50
2023-04-06T13:38:48.470Z,23.60
2023-04-06T13:43:52.273Z,24.80
2023-04-06T13:48:55.833Z,25.20
2023-04-06T13:54:00.555Z,25.40
2023-04-06T13:59:05.889Z,24.50
2023-04-06T14:04:09.369Z,21.30
2023-04-06T14:09:14.361Z,23.60
2023-04-06T14:14:17.690Z,24.10
2023-04-06T14:19:21.933Z,23.10
2023-04-06T14:24:27.611Z,23.70
2023-04-06T14:29:31.053Z,23.60
2023-04-06T14:34:34.324Z,21.00
2023-04-06T14:39:39.040Z,22.30
2023-04-06T14:44:43.996Z,23.30
2023-04-06T14:49:49.376Z,23.20
2023-04-06T14:54:54.459Z,23.50
2023-04-06T14:59:57.804Z,21.60
2023-04-06T15:05:01.534Z,24.40
2023-04-06T15:10:07.527Z,25.00
2023-04-06T15:15:12.008Z,25.60
2023-04-06T15:20:15.554Z,25.00
2023-04-06T15:25:20.804Z,24.70
2023-04-06T15:30:24.915Z,24.60
2023-04-06T15:35:28.698Z,24.50
2023-04-06T15:40:37.408Z,23.80
2023-04-06T15:45:41.830Z,23.70
2023-04-06T15:50:45.135Z,23.30
2023-04-06T15:55:49.737Z,19.50
2023-04-06T16:00:53.247Z,20.20
2023-04-06T16:06:08.015Z,21.60
2023-04-06T16:11:13.459Z,18.80
2023-04-06T16:16:16.940Z,20.10
2023-04-06T16:21:20.544Z,20.10
2023-04-06T16:26:25.813Z,20.10
2023-04-06T16:31:29.159Z,19.50
2023-04-06T16:36:33.920Z,19.30
2023-04-06T16:41:39.352Z,18.50
2023-04-06T16:46:44.052Z,18.20
2023-04-06T16:51:47.422Z,18.20
2023-04-06T16:56:51.994Z,16.90
2023-04-06T17:01:55.607Z,16.50
2023-04-06T17:06:59.098Z,15.90
2023-04-06T17:12:03.826Z,15.00
2023-04-06T17:17:07.110Z,13.70
2023-04-06T17:22:10.415Z,12.50
2023-04-06T17:27:15.054Z,11.50
2023-04-06T17:32:20.295Z,11.20
2023-04-06T17:37:23.508Z,10.90
2023-04-06T17:42:28.218Z,10.70
2023-04-06T17:47:33.046Z,10.50
2023-04-06T17:52:36.684Z,10.10
2023-04-06T17:57:43.332Z,9.30
2023-04-06T18:02:46.855Z,9.20
2023-04-06T18:07:52.629Z,9.10
2023-04-06T18:12:57.334Z,9.00
2023-04-06T18:18:00.713Z,8.80
2023-04-06T18:23:04.323Z,8.70
2023-04-06T18:28:10.707Z,8.50
2023-04-06T18:33:14.081Z,8.40
2023-04-06T18:38:17.338Z,8.30
2023-04-06T18:43:21.982Z,8.20
2023-04-06T18:48:25.082Z,7.80
2023-04-06T18:53:28.219Z,6.00
2023-04-06T18:58:33.058Z,7.40
2023-04-06T19:03:36.719Z,7.50
2023-04-06T19:08:40.436Z,7.30
2023-04-06T19:13:53.778Z,6.90
2023-04-06T19:18:57.144Z,6.70
2023-04-06T19:24:00.594Z,7.00
2023-04-06T19:29:05.574Z,6.40
2023-04-06T19:34:08.858Z,6.40
2023-04-06T19:39:12.110Z,6.20
2023-04-06T19:44:17.094Z,6.00
2023-04-06T19:49:20.447Z,5.90
2023-04-06T19:54:24.091Z,5.70
2023-04-06T19:59:29.480Z,5.60
2023-04-06T20:04:32.942Z,9.30
2023-04-06T20:09:36.531Z,5.50
2023-04-06T20:14:41.438Z,5.40
2023-04-06T20:19:44.671Z,5.30
2023-04-06T20:24:47.941Z,5.40
2023-04-06T20:29:53.514Z,5.20
2023-04-06T20:34:57.214Z,5.20
2023-04-06T20:40:01.157Z,5.30
2023-04-06T20:45:06.903Z,5.40
2023-04-06T20:50:10.801Z,5.40
2023-04-06T20:55:14.172Z,5.00
2023-04-06T21:00:19.875Z,4.80
2023-04-06T21:05:23.138Z,4.50
2023-04-06T21:10:26.569Z,4.30
2023-04-06T21:15:31.411Z,4.10
2023-04-06T21:20:35.162Z,3.80
2023-04-06T21:25:38.820Z,3.80
2023-04-06T21:30:43.612Z,3.70
2023-04-06T21:35:47.033Z,3.60
2023-04-06T21:40:56.107Z,3.50
2023-04-06T21:46:00.802Z,3.40
2023-04-06T21:51:04.099Z,3.60
2023-04-06T21:56:07.716Z,3.20
2023-04-06T22:01:12.964Z,3.20
2023-04-06T22:06:16.395Z,5.10
2023-04-06T22:11:25.302Z,3.00
2023-04-06T22:16:30.310Z,2.90
2023-04-06T22:21:33.673Z,2.90
2023-04-06T22:26:37.254Z,3.00
2023-04-06T22:31:41.986Z,3.00
2023-04-06T22:36:45.323Z,2.70
2023-04-06T22:41:48.660Z,2.60
2023-04-06T22:46:53.395Z,2.60
2023-04-06T22:51:56.728Z,2.50
2023-04-06T22:57:00.016Z,2.20
2023-04-06T23:02:04.763Z,2.30
2023-04-06T23:07:08.138Z,2.20
2023-04-06T23:12:11.668Z,2.20
2023-04-06T23:17:16.384Z,2.30
2023-04-06T23:22:19.733Z,2.00
2023-04-06T23:27:23.063Z,1.80
2023-04-06T23:32:27.881Z,4.10
2023-04-06T23:37:31.234Z,4.30
2023-04-06T23:42:34.534Z,2.20
2023-04-06T23:47:39.417Z,1.80
2023-04-06T23:52:42.811Z,3.70
2023-04-06T23:57:46.166Z,1.90
